createdAt,value
2023-11-15T00:41:19.349Z,12.61
2023-11-15T00:43:24.113Z,12.53
2023-11-15T00:45:28.941Z,12.39
2023-11-15T00:55:14.949Z,12.03
2023-11-15T00:57:19.564Z,11.99
2023-11-15T00:59:24.365Z,11.99
2023-11-15T01:01:29.050Z,12.00
2023-11-15T01:03:33.807Z,12.00
2023-11-15T01:05:38.566Z,12.01
2023-11-15T01:07:43.312Z,12.02
2023-11-15T01:09:47.945Z,12.05
2023-11-15T01:11:52.815Z,12.07
2023-11-15T01:13:58.105Z,12.10
2023-11-15T01:16:03.054Z,12.12
2023-11-15T01:18:07.945Z,12.16
2023-11-15T01:20:13.109Z,12.21
2023-11-15T01:22:20.764Z,12.27
2023-11-15T01:24:25.909Z,12.32
2023-11-15T01:26:30.715Z,12.35
2023-11-15T01:28:35.511Z,12.35
2023-11-15T01:30:40.177Z,12.34
2023-11-15T01:32:44.821Z,12.34
2023-11-15T01:34:49.579Z,12.33
2023-11-15T01:36:54.207Z,12.33
2023-11-15T01:38:58.914Z,12.32
2023-11-15T01:41:03.750Z,12.30
2023-11-15T01:43:09.420Z,12.26
2023-11-15T01:45:14.176Z,12.25
2023-11-15T01:47:18.932Z,12.24
2023-11-15T01:49:24.263Z,12.23
2023-11-15T01:51:28.878Z,12.22
2023-11-15T01:53:34.030Z,12.21
2023-11-15T01:55:39.357Z,12.22
2023-11-15T01:57:44.538Z,12.21
2023-11-15T01:59:49.722Z,12.20
2023-11-15T02:01:55.068Z,12.21
2023-11-15T02:03:59.801Z,12.22
2023-11-15T02:06:05.296Z,12.25
2023-11-15T02:08:10.070Z,12.26
2023-11-15T02:10:14.979Z,12.27
2023-11-15T02:12:19.738Z,12.28
2023-11-15T02:14:24.488Z,12.29
2023-11-15T02:16:29.361Z,12.32
2023-11-15T02:18:34.700Z,12.34
2023-11-15T02:20:39.451Z,12.35
2023-11-15T02:22:49.197Z,12.35
2023-11-15T02:24:54.314Z,12.36
2023-11-15T02:26:59.055Z,12.41
2023-11-15T02:29:04.150Z,12.43
2023-11-15T02:31:09.113Z,12.44
2023-11-15T02:33:13.891Z,12.46
2023-11-15T02:35:18.706Z,12.48
2023-11-15T02:37:23.419Z,12.51
2023-11-15T02:39:28.197Z,12.56
2023-11-15T02:41:33.080Z,12.61
2023-11-15T02:43:37.882Z,12.65
2023-11-15T02:45:42.706Z,12.68
2023-11-15T02:47:47.425Z,12.72
2023-11-15T02:49:52.092Z,12.73
2023-11-15T02:51:56.748Z,12.74
2023-11-15T02:54:01.464Z,12.76
2023-11-15T02:56:07.160Z,12.78
2023-11-15T02:58:11.754Z,12.81
2023-11-15T03:00:17.734Z,12.83
2023-11-15T03:02:22.385Z,12.85
2023-11-15T03:04:26.987Z,12.88
2023-11-15T03:06:34.669Z,12.90
2023-11-15T03:08:39.444Z,12.91
2023-11-15T03:10:44.336Z,12.91
2023-11-15T03:12:49.058Z,12.90
2023-11-15T03:14:54.488Z,12.90
2023-11-15T03:17:05.985Z,12.90
2023-11-15T03:19:11.065Z,12.91
2023-11-15T03:21:16.105Z,12.94
2023-11-15T03:23:21.899Z,12.95
2023-11-15T03:25:26.845Z,12.96
2023-11-15T03:27:31.475Z,12.95
2023-11-15T03:29:36.128Z,12.94
2023-11-15T03:31:40.680Z,12.95
2023-11-15T03:33:45.443Z,12.93
2023-11-15T03:35:50.147Z,12.94
2023-11-15T03:37:55.044Z,12.93
2023-11-15T03:39:59.744Z,12.92
2023-11-15T03:42:04.779Z,12.90
2023-11-15T03:44:09.523Z,12.90
2023-11-15T03:46:17.096Z,12.88
2023-11-15T03:48:21.897Z,12.88
2023-11-15T03:50:26.603Z,12.86
2023-11-15T03:52:31.338Z,12.85
2023-11-15T03:54:35.986Z,12.82
2023-11-15T03:56:40.615Z,12.80
2023-11-15T03:58:45.296Z,12.77
2023-11-15T04:00:49.951Z,12.74
2023-11-15T04:02:54.817Z,12.72
2023-11-15T04:04:59.653Z,12.71
2023-11-15T04:07:04.452Z,12.70
2023-11-15T04:09:09.079Z,12.70
2023-11-15T04:11:14.971Z,12.69
2023-11-15T04:13:19.786Z,12.67
2023-11-15T04:15:24.462Z,12.67
2023-11-15T04:17:29.168Z,12.66
2023-11-15T04:19:33.907Z,12.65
2023-11-15T04:21:38.774Z,12.66
2023-11-15T04:23:43.471Z,12.66
2023-11-15T04:25:48.398Z,12.67
2023-11-15T04:27:53.633Z,12.70
2023-11-15T04:29:58.494Z,12.71
2023-11-15T04:32:03.227Z,12.72
2023-11-15T04:34:07.989Z,12.75
2023-11-15T04:36:12.955Z,12.75
2023-11-15T04:38:17.606Z,12.76
2023-11-15T04:40:22.483Z,12.78
2023-11-15T04:42:27.233Z,12.80
2023-11-15T04:44:32.089Z,12.82
2023-11-15T04:46:39.866Z,12.85
2023-11-15T04:48:44.547Z,12.87
2023-11-15T04:50:49.272Z,12.88
2023-11-15T04:52:58.719Z,12.90
2023-11-15T04:55:05.516Z,12.94
2023-11-15T04:57:10.299Z,12.96
2023-11-15T04:59:17.881Z,12.97
2023-11-15T05:01:22.644Z,13.00
2023-11-15T05:03:27.387Z,13.01
2023-11-15T05:05:32.144Z,13.02
2023-11-15T05:07:36.781Z,13.02
2023-11-15T05:09:41.387Z,13.04
2023-11-15T05:11:46.006Z,13.04
2023-11-15T05:13:50.637Z,13.05
2023-11-15T05:15:55.472Z,13.07
2023-11-15T05:18:00.277Z,13.08
2023-11-15T05:20:05.470Z,13.10
2023-11-15T05:22:10.313Z,13.11
2023-11-15T05:24:15.004Z,13.11
2023-11-15T05:26:19.671Z,13.13
2023-11-15T05:28:24.257Z,13.13
2023-11-15T05:30:28.898Z,13.15
2023-11-15T05:32:33.558Z,13.13
2023-11-15T05:34:38.186Z,13.13
2023-11-15T05:36:42.870Z,13.14
2023-11-15T05:38:47.500Z,13.12
2023-11-15T05:40:52.161Z,13.08
2023-11-15T05:42:57.117Z,13.08
2023-11-15T05:45:01.919Z,13.08
2023-11-15T05:47:06.831Z,13.07
2023-11-15T05:49:11.483Z,13.05
2023-11-15T05:51:16.110Z,13.03
2023-11-15T05:53:20.747Z,13.00
2023-11-15T05:55:25.460Z,12.97
2023-11-15T05:57:30.097Z,12.97
2023-11-15T05:59:34.827Z,12.94
2023-11-15T06:01:40.686Z,12.91
2023-11-15T06:03:45.424Z,12.90
2023-11-15T06:05:50.197Z,12.89
2023-11-15T06:07:54.834Z,12.89
2023-11-15T06:09:59.555Z,12.88
2023-11-15T06:12:04.654Z,12.88
2023-11-15T06:14:09.507Z,12.85
2023-11-15T06:16:14.140Z,12.86
2023-11-15T06:18:18.849Z,12.84
2023-11-15T06:20:23.510Z,12.83
2023-11-15T06:22:28.251Z,12.84
2023-11-15T06:24:32.847Z,12.83
2023-11-15T06:26:40.754Z,12.83
2023-11-15T06:28:45.408Z,12.85
2023-11-15T06:30:50.190Z,12.84
2023-11-15T06:32:55.005Z,12.85
2023-11-15T06:34:59.717Z,12.84
2023-11-15T06:37:04.449Z,12.84
2023-11-15T06:39:09.193Z,12.82
2023-11-15T06:41:13.851Z,12.81
2023-11-15T06:43:18.457Z,12.80
2023-11-15T06:45:23.145Z,12.81
2023-11-15T06:47:27.850Z,12.82
2023-11-15T06:49:32.713Z,12.81
2023-11-15T06:51:37.563Z,12.81
2023-11-15T06:53:42.371Z,12.80
2023-11-15T06:55:47.084Z,12.78
2023-11-15T06:57:51.744Z,12.77
2023-11-15T06:59:57.661Z,12.76
2023-11-15T07:02:02.341Z,12.74
2023-11-15T07:04:07.301Z,12.74
2023-11-15T07:06:13.747Z,12.74
2023-11-15T07:08:21.122Z,12.74
2023-11-15T07:10:25.796Z,12.74
2023-11-15T07:12:30.493Z,12.74
2023-11-15T07:14:35.651Z,12.74
2023-11-15T07:16:44.257Z,12.74
2023-11-15T07:18:48.991Z,12.74
2023-11-15T07:20:53.639Z,12.73
2023-11-15T07:22:58.245Z,12.74
2023-11-15T07:25:02.870Z,12.73
2023-11-15T07:27:07.793Z,12.71
2023-11-15T07:29:14.815Z,12.71
2023-11-15T07:31:19.614Z,12.69
2023-11-15T07:33:24.553Z,12.69
2023-11-15T07:35:29.366Z,12.66
2023-11-15T07:37:34.004Z,12.64
2023-11-15T07:39:38.704Z,12.57
2023-11-15T07:41:43.368Z,12.54
2023-11-15T07:43:47.941Z,12.46
2023-11-15T07:45:52.843Z,12.34
2023-11-15T07:47:57.845Z,12.22
2023-11-15T07:50:02.544Z,12.12
2023-11-15T07:52:07.592Z,12.04
2023-11-15T07:54:12.780Z,11.99
2023-11-15T07:56:17.821Z,11.94
2023-11-15T07:58:22.491Z,11.90
2023-11-15T08:00:27.154Z,11.85
2023-11-15T08:02:31.880Z,11.80
2023-11-15T08:04:36.764Z,11.76
2023-11-15T08:06:41.454Z,11.71
2023-11-15T08:08:46.229Z,11.70
2023-11-15T08:10:51.124Z,11.69
2023-11-15T08:12:55.753Z,11.68
2023-11-15T08:15:00.421Z,11.68
2023-11-15T08:17:05.363Z,11.72
2023-11-15T08:19:10.104Z,11.73
2023-11-15T08:21:14.832Z,11.75
2023-11-15T08:23:19.996Z,11.77
2023-11-15T08:25:24.817Z,11.80
2023-11-15T08:27:29.412Z,11.81
2023-11-15T08:29:34.114Z,11.81
2023-11-15T08:31:38.920Z,11.82
2023-11-15T08:33:43.701Z,11.81
2023-11-15T08:35:49.089Z,11.72
2023-11-15T08:37:53.850Z,11.64
2023-11-15T08:39:58.529Z,11.58
2023-11-15T08:42:03.466Z,11.54
2023-11-15T08:44:08.572Z,11.49
2023-11-15T08:46:13.207Z,11.46
2023-11-15T08:48:17.993Z,11.45
2023-11-15T08:50:22.746Z,11.44
2023-11-15T08:52:27.422Z,11.43
2023-11-15T08:54:32.174Z,11.40
2023-11-15T08:56:36.924Z,11.41
2023-11-15T08:58:41.622Z,11.40
2023-11-15T09:00:46.769Z,11.43
2023-11-15T09:02:51.618Z,11.44
2023-11-15T09:04:56.445Z,11.46
2023-11-15T09:07:01.249Z,11.50
2023-11-15T09:09:09.150Z,11.55
2023-11-15T09:11:14.614Z,11.60
2023-11-15T09:13:19.372Z,11.62
2023-11-15T09:15:24.155Z,11.63
2023-11-15T09:17:29.007Z,11.64
2023-11-15T09:19:36.801Z,11.63
2023-11-15T09:21:43.404Z,11.63
2023-11-15T09:23:48.391Z,11.62
2023-11-15T09:25:53.272Z,11.63
2023-11-15T09:28:00.938Z,11.72
2023-11-15T09:30:06.739Z,11.81
2023-11-15T09:32:11.424Z,11.84
2023-11-15T09:34:16.634Z,11.87
2023-11-15T09:36:21.393Z,11.90
2023-11-15T09:38:26.118Z,11.94
2023-11-15T09:40:30.767Z,11.96
2023-11-15T09:42:36.212Z,11.95
2023-11-15T09:44:42.146Z,11.90
2023-11-15T09:46:47.590Z,11.91
2023-11-15T09:48:57.354Z,11.92
2023-11-15T09:51:07.131Z,11.91
2023-11-15T09:53:11.816Z,11.91
2023-11-15T09:55:17.020Z,11.89
2023-11-15T09:57:21.707Z,11.89
2023-11-15T09:59:26.734Z,11.89
2023-11-15T10:01:32.046Z,11.92
2023-11-15T10:03:42.344Z,11.93
2023-11-15T10:05:57.589Z,11.96
2023-11-15T10:08:12.715Z,11.98
2023-11-15T10:10:21.650Z,12.03
2023-11-15T10:12:33.485Z,12.05
2023-11-15T10:14:52.598Z,12.09
2023-11-15T10:16:57.399Z,12.11
2023-11-15T10:19:02.003Z,12.14
2023-11-15T10:21:10.981Z,12.18
2023-11-15T10:23:29.163Z,12.21
2023-11-15T10:25:46.631Z,12.24
2023-11-15T10:27:51.282Z,12.29
2023-11-15T10:29:55.895Z,12.33
2023-11-15T10:32:01.934Z,12.38
2023-11-15T10:34:12.931Z,12.42
2023-11-15T10:36:21.987Z,12.48
2023-11-15T10:38:26.783Z,12.53
2023-11-15T10:40:31.680Z,12.62
2023-11-15T10:42:37.888Z,12.72
2023-11-15T10:44:43.617Z,12.81
2023-11-15T10:46:49.786Z,12.86
2023-11-15T10:48:55.428Z,12.89
2023-11-15T10:51:02.846Z,12.91
2023-11-15T10:53:08.266Z,12.87
2023-11-15T10:55:13.653Z,12.77
2023-11-15T10:57:19.146Z,12.70
2023-11-15T10:59:25.750Z,12.68
2023-11-15T11:01:32.184Z,12.69
2023-11-15T11:03:37.469Z,12.70
2023-11-15T11:05:47.147Z,12.76
2023-11-15T11:08:00.774Z,12.83
2023-11-15T11:10:14.758Z,12.90
2023-11-15T11:12:21.169Z,12.97
2023-11-15T11:14:25.912Z,13.04
2023-11-15T11:16:35.158Z,13.11
2023-11-15T11:18:40.978Z,13.18
2023-11-15T11:20:59.674Z,13.23
2023-11-15T11:23:14.534Z,13.29
2023-11-15T11:25:25.973Z,13.36
2023-11-15T11:27:35.081Z,13.41
2023-11-15T11:30:17.692Z,13.47
2023-11-15T11:32:24.688Z,13.51
2023-11-15T11:34:29.430Z,13.55
2023-11-15T11:36:51.916Z,13.57
2023-11-15T11:38:57.096Z,13.58
2023-11-15T11:41:02.195Z,13.63
2023-11-15T11:43:23.533Z,13.69
2023-11-15T11:45:29.633Z,13.77
2023-11-15T11:47:40.889Z,13.80
2023-11-15T11:49:49.030Z,13.79
2023-11-15T11:51:54.116Z,13.75
2023-11-15T11:53:58.944Z,13.74
2023-11-15T11:56:09.197Z,13.77
2023-11-15T11:58:14.644Z,13.80
2023-11-15T12:00:22.363Z,13.80
2023-11-15T12:02:35.814Z,13.81
2023-11-15T12:04:46.788Z,13.83
2023-11-15T12:06:51.652Z,13.90
2023-11-15T12:08:56.440Z,13.93
2023-11-15T12:11:01.906Z,13.94
2023-11-15T12:13:08.362Z,13.97
2023-11-15T12:15:14.247Z,13.97
2023-11-15T12:17:19.100Z,13.96
2023-11-15T12:19:24.811Z,13.96
2023-11-15T12:21:29.757Z,14.00
2023-11-15T12:23:34.585Z,14.07
2023-11-15T12:25:50.476Z,14.11
2023-11-15T12:27:58.265Z,14.11
2023-11-15T12:30:03.748Z,14.11
2023-11-15T12:32:09.299Z,14.17
2023-11-15T12:34:14.588Z,14.21
2023-11-15T12:36:19.526Z,14.24
2023-11-15T12:38:24.227Z,14.24
2023-11-15T12:40:30.179Z,14.21
2023-11-15T12:42:34.922Z,14.25
2023-11-15T12:44:47.165Z,14.25
2023-11-15T12:46:55.249Z,14.27
2023-11-15T12:49:00.723Z,14.30
2023-11-15T12:51:07.826Z,14.30
2023-11-15T12:53:13.520Z,14.22
2023-11-15T12:55:34.386Z,14.21
2023-11-15T12:57:52.901Z,14.17
2023-11-15T12:59:57.600Z,14.14
2023-11-15T13:02:02.441Z,14.14
2023-11-15T13:04:07.631Z,14.16
2023-11-15T13:06:14.830Z,14.24
2023-11-15T13:08:19.703Z,14.35
2023-11-15T13:10:24.326Z,14.43
2023-11-15T13:12:29.020Z,14.47
2023-11-15T13:14:33.656Z,14.50
2023-11-15T13:16:38.430Z,14.54
2023-11-15T13:18:44.733Z,14.55
2023-11-15T13:20:49.383Z,14.58
2023-11-15T13:22:54.110Z,14.57
2023-11-15T13:24:58.937Z,14.63
2023-11-15T13:27:03.745Z,14.67
2023-11-15T13:29:08.378Z,14.72
2023-11-15T13:31:16.999Z,14.70
2023-11-15T13:33:23.536Z,14.68
2023-11-15T13:35:28.418Z,14.66
2023-11-15T13:37:33.150Z,14.65
2023-11-15T13:39:37.875Z,14.70
2023-11-15T13:41:42.565Z,14.72
2023-11-15T13:43:47.570Z,14.76
2023-11-15T13:45:52.327Z,14.77
2023-11-15T13:47:57.005Z,14.72
2023-11-15T13:50:01.731Z,14.70
2023-11-15T13:52:06.703Z,14.67
2023-11-15T13:54:11.431Z,14.63
2023-11-15T13:56:16.124Z,14.54
2023-11-15T13:58:20.743Z,14.46
2023-11-15T14:00:25.961Z,14.37
2023-11-15T14:02:31.019Z,14.27
2023-11-15T14:04:35.786Z,14.19
2023-11-15T14:06:40.547Z,14.17
2023-11-15T14:08:52.179Z,14.16
2023-11-15T14:11:03.480Z,14.12
2023-11-15T14:13:08.995Z,14.10
2023-11-15T14:15:13.898Z,14.05
2023-11-15T14:17:21.363Z,14.02
2023-11-15T14:19:28.670Z,14.00
2023-11-15T14:21:33.416Z,13.97
2023-11-15T14:23:38.067Z,13.94
2023-11-15T14:25:42.998Z,13.92
2023-11-15T14:27:49.659Z,13.86
2023-11-15T14:29:56.376Z,13.82
2023-11-15T14:32:01.026Z,13.76
2023-11-15T14:34:08.770Z,13.69
2023-11-15T14:36:16.058Z,13.65
2023-11-15T14:38:20.710Z,13.63
2023-11-15T14:40:25.725Z,13.58
2023-11-15T14:42:30.403Z,13.56
2023-11-15T14:44:35.057Z,13.55
2023-11-15T14:46:39.929Z,13.53
2023-11-15T14:48:44.670Z,13.51
2023-11-15T14:50:49.718Z,13.49
2023-11-15T14:52:54.383Z,13.47
2023-11-15T14:54:59.004Z,13.45
2023-11-15T14:57:05.781Z,13.45
2023-11-15T14:59:10.395Z,13.42
2023-11-15T15:01:15.579Z,13.39
2023-11-15T15:03:20.554Z,13.35
2023-11-15T15:05:25.641Z,13.34
2023-11-15T15:07:30.328Z,13.31
2023-11-15T15:09:37.836Z,13.28
2023-11-15T15:11:42.594Z,13.25
2023-11-15T15:13:47.340Z,13.21
2023-11-15T15:15:51.993Z,13.18
2023-11-15T15:17:56.740Z,13.16
2023-11-15T15:20:01.398Z,13.15
2023-11-15T15:22:06.441Z,13.10
2023-11-15T15:24:11.776Z,13.06
2023-11-15T15:26:18.424Z,13.02
2023-11-15T15:28:25.290Z,12.99
2023-11-15T15:30:30.208Z,12.95
2023-11-15T15:32:36.423Z,12.92
2023-11-15T15:34:41.102Z,12.89
2023-11-15T15:36:45.843Z,12.84
2023-11-15T15:38:50.495Z,12.79
2023-11-15T15:40:55.208Z,12.74
2023-11-15T15:42:59.880Z,12.69
2023-11-15T15:45:06.880Z,12.65
2023-11-15T15:47:11.569Z,12.62
2023-11-15T15:49:16.348Z,12.59
2023-11-15T15:51:21.040Z,12.57
2023-11-15T15:53:25.693Z,12.56
2023-11-15T15:55:33.505Z,12.56
2023-11-15T15:57:38.269Z,12.55
2023-11-15T15:59:42.968Z,12.53
2023-11-15T16:01:47.906Z,12.55
2023-11-15T16:03:52.814Z,12.54
2023-11-15T16:05:57.643Z,12.52
2023-11-15T16:08:02.425Z,12.51
2023-11-15T16:10:08.989Z,12.49
2023-11-15T16:12:13.770Z,12.49
2023-11-15T16:14:18.616Z,12.47
2023-11-15T16:16:23.331Z,12.47
2023-11-15T16:18:28.052Z,12.45
2023-11-15T16:20:32.741Z,12.44
2023-11-15T16:22:37.403Z,12.41
2023-11-15T16:24:42.473Z,12.38
2023-11-15T16:26:47.235Z,12.37
2023-11-15T16:28:52.039Z,12.35
2023-11-15T16:30:56.852Z,12.35
2023-11-15T16:33:04.667Z,12.33
2023-11-15T16:35:10.195Z,12.32
2023-11-15T16:37:14.917Z,12.29
2023-11-15T16:39:19.634Z,12.28
2023-11-15T16:41:24.525Z,12.25
2023-11-15T16:43:29.232Z,12.22
2023-11-15T16:45:36.690Z,12.19
2023-11-15T16:47:42.196Z,12.17
2023-11-15T16:49:46.922Z,12.13
2023-11-15T16:51:51.866Z,12.08
2023-11-15T16:53:56.933Z,12.04
2023-11-15T16:56:01.630Z,12.00
2023-11-15T16:58:06.257Z,11.96
2023-11-15T17:00:13.024Z,11.92
2023-11-15T17:02:17.784Z,11.92
2023-11-15T17:04:22.521Z,11.92
2023-11-15T17:06:28.098Z,11.92
2023-11-15T17:08:32.829Z,11.93
2023-11-15T17:10:37.493Z,11.94
2023-11-15T17:12:42.187Z,11.96
2023-11-15T17:14:46.984Z,11.96
2023-11-15T17:16:51.872Z,11.98
2023-11-15T17:18:57.024Z,11.98
2023-11-15T17:21:01.741Z,12.00
2023-11-15T17:23:06.473Z,12.00
2023-11-15T17:25:19.260Z,11.99
2023-11-15T17:27:27.157Z,12.01
2023-11-15T17:29:32.182Z,12.01
2023-11-15T17:31:36.908Z,12.01
2023-11-15T17:33:42.592Z,12.00
2023-11-15T17:35:47.494Z,11.99
2023-11-15T17:37:52.258Z,11.99
2023-11-15T17:39:57.206Z,12.00
2023-11-15T17:42:02.059Z,11.97
2023-11-15T17:44:09.720Z,11.98
2023-11-15T17:46:16.528Z,11.98
2023-11-15T17:48:21.455Z,11.98
2023-11-15T17:50:26.240Z,11.97
2023-11-15T17:52:31.136Z,11.97
2023-11-15T17:54:37.264Z,11.95
2023-11-15T17:56:42.632Z,11.92
2023-11-15T17:58:47.687Z,11.90
2023-11-15T18:00:52.994Z,11.88
2023-11-15T18:02:57.930Z,11.84
2023-11-15T18:05:03.218Z,11.81
2023-11-15T18:07:08.192Z,11.78
2023-11-15T18:09:13.164Z,11.74
2023-11-15T18:11:18.335Z,11.71
2023-11-15T18:13:23.052Z,11.70
2023-11-15T18:15:27.849Z,11.67
2023-11-15T18:17:32.655Z,11.65
2023-11-15T18:19:37.656Z,11.61
2023-11-15T18:21:42.657Z,11.59
2023-11-15T18:23:47.642Z,11.56
2023-11-15T18:25:54.636Z,11.53
2023-11-15T18:28:00.881Z,11.51
2023-11-15T18:30:09.230Z,11.47
2023-11-15T18:32:17.324Z,11.45
2023-11-15T18:34:24.635Z,11.43
2023-11-15T18:36:32.054Z,11.43
2023-11-15T18:38:38.705Z,11.42
2023-11-15T18:40:47.693Z,11.41
2023-11-15T18:42:54.261Z,11.41
2023-11-15T18:45:01.234Z,11.41
2023-11-15T18:47:11.044Z,11.41
2023-11-15T18:49:17.880Z,11.39
2023-11-15T18:51:23.806Z,11.38
2023-11-15T18:53:30.121Z,11.37
2023-11-15T18:55:35.898Z,11.35
2023-11-15T18:57:41.801Z,11.35
2023-11-15T18:59:50.297Z,11.33
2023-11-15T19:01:56.466Z,11.32
2023-11-15T19:04:02.644Z,11.32
2023-11-15T19:06:10.308Z,11.29
2023-11-15T19:08:17.038Z,11.29
2023-11-15T19:10:24.420Z,11.28
2023-11-15T19:12:31.559Z,11.26
2023-11-15T19:14:39.932Z,11.25
2023-11-15T19:16:46.727Z,11.25
2023-11-15T19:18:57.517Z,11.25
2023-11-15T19:21:04.534Z,11.25
2023-11-15T19:23:11.596Z,11.24
2023-11-15T19:25:19.092Z,11.23
2023-11-15T19:27:27.058Z,11.22
2023-11-15T19:29:34.468Z,11.21
2023-11-15T19:31:41.627Z,11.20
2023-11-15T19:33:53.142Z,11.18
2023-11-15T19:36:00.269Z,11.16
2023-11-15T19:38:07.912Z,11.15
2023-11-15T19:40:16.790Z,11.13
2023-11-15T19:42:29.554Z,11.12
2023-11-15T19:44:37.422Z,11.12
2023-11-15T19:46:45.090Z,11.11
2023-11-15T19:48:53.424Z,11.10
2023-11-15T19:51:01.371Z,11.09
2023-11-15T19:53:12.784Z,11.08
2023-11-15T19:55:24.661Z,11.07
2023-11-15T19:57:33.205Z,11.06
2023-11-15T19:59:43.737Z,11.06
2023-11-15T20:01:54.229Z,11.05
2023-11-15T20:04:04.491Z,11.05
2023-11-15T20:06:12.981Z,11.05
2023-11-15T20:08:20.718Z,11.03
2023-11-15T20:10:29.405Z,11.02
2023-11-15T20:12:36.684Z,11.01
2023-11-15T20:14:44.351Z,11.01
2023-11-15T20:16:52.505Z,11.01
2023-11-15T20:19:00.574Z,11.02
2023-11-15T20:21:07.887Z,11.03
2023-11-15T20:23:15.351Z,11.04
2023-11-15T20:25:22.447Z,11.07
2023-11-15T20:27:29.510Z,11.07
2023-11-15T20:29:36.177Z,11.07
2023-11-15T20:31:43.859Z,11.08
2023-11-15T20:33:51.356Z,11.09
2023-11-15T20:35:59.190Z,11.09
2023-11-15T20:38:06.024Z,11.08
2023-11-15T20:40:14.225Z,11.07
2023-11-15T20:42:20.308Z,11.07
2023-11-15T20:44:26.225Z,11.06
2023-11-15T20:46:33.036Z,11.05
2023-11-15T20:48:39.044Z,11.05
2023-11-15T20:50:44.229Z,11.04
2023-11-15T20:52:49.654Z,11.02
2023-11-15T20:54:54.973Z,11.02
2023-11-15T20:56:59.745Z,11.01
2023-11-15T20:59:04.484Z,10.99
2023-11-15T21:01:09.500Z,10.98
2023-11-15T21:03:14.621Z,10.99
2023-11-15T21:05:19.499Z,10.98
2023-11-15T21:07:24.281Z,10.97
2023-11-15T21:09:29.041Z,10.97
2023-11-15T21:11:33.683Z,10.95
2023-11-15T21:13:38.879Z,10.95
2023-11-15T21:15:44.301Z,10.94
2023-11-15T21:17:49.041Z,10.95
2023-11-15T21:19:53.797Z,10.94
2023-11-15T21:21:58.416Z,10.93
2023-11-15T21:24:03.166Z,10.93
2023-11-15T21:26:08.399Z,10.91
2023-11-15T21:28:13.076Z,10.89
2023-11-15T21:30:18.052Z,10.89
2023-11-15T21:32:22.853Z,10.88
2023-11-15T21:34:27.498Z,10.87
2023-11-15T21:36:32.413Z,10.88
2023-11-15T21:38:37.842Z,10.86
2023-11-15T21:40:42.543Z,10.86
2023-11-15T21:42:48.472Z,10.85
2023-11-15T21:44:54.001Z,10.84
2023-11-15T21:47:00.250Z,10.85
2023-11-15T21:49:05.134Z,10.85
2023-11-15T21:51:09.805Z,10.84
2023-11-15T21:53:14.491Z,10.84
2023-11-15T21:55:19.363Z,10.82
2023-11-15T21:57:24.154Z,10.80
2023-11-15T21:59:28.840Z,10.79
2023-11-15T22:01:33.519Z,10.79
2023-11-15T22:03:38.224Z,10.77
2023-11-15T22:05:42.900Z,10.76
2023-11-15T22:07:47.543Z,10.75
2023-11-15T22:09:52.255Z,10.76
2023-11-15T22:11:56.964Z,10.76
2023-11-15T22:14:01.606Z,10.75
2023-11-15T22:16:07.504Z,10.75
2023-11-15T22:18:12.322Z,10.76
2023-11-15T22:20:17.116Z,10.77
2023-11-15T22:22:21.749Z,10.78
2023-11-15T22:24:26.523Z,10.80
2023-11-15T22:26:31.155Z,10.82
2023-11-15T22:28:35.882Z,10.84
2023-11-15T22:30:40.539Z,10.84
2023-11-15T22:32:45.259Z,10.85
2023-11-15T22:34:50.013Z,10.86
2023-11-15T22:36:54.633Z,10.85
2023-11-15T22:38:59.280Z,10.86
2023-11-15T22:41:04.188Z,10.88
2023-11-15T22:43:08.954Z,10.89
2023-11-15T22:45:14.017Z,10.93
2023-11-15T22:47:18.682Z,10.95
2023-11-15T22:49:23.326Z,10.97
2023-11-15T22:51:27.966Z,10.97
2023-11-15T22:53:32.668Z,10.99
2023-11-15T22:55:37.292Z,11.00
2023-11-15T22:57:42.032Z,11.00
2023-11-15T22:59:47.682Z,11.01
2023-11-15T23:01:54.595Z,11.01
2023-11-15T23:04:02.490Z,11.02
2023-11-15T23:06:08.345Z,11.02
2023-11-15T23:08:13.065Z,11.02
2023-11-15T23:10:17.756Z,11.01
2023-11-15T23:12:25.556Z,11.01
2023-11-15T23:14:30.197Z,11.03
2023-11-15T23:16:34.976Z,11.03
2023-11-15T23:18:42.646Z,11.05
2023-11-15T23:20:47.975Z,11.04
2023-11-15T23:22:52.613Z,11.07
2023-11-15T23:24:57.386Z,11.08
2023-11-15T23:27:02.141Z,11.07
2023-11-15T23:29:06.818Z,11.07
2023-11-15T23:31:11.548Z,11.06
2023-11-15T23:33:16.299Z,11.04
2023-11-15T23:35:21.382Z,11.05
2023-11-15T23:37:26.246Z,11.04
2023-11-15T23:39:30.951Z,11.06
2023-11-15T23:41:35.581Z,11.06
2023-11-15T23:43:40.315Z,11.07
2023-11-15T23:45:45.000Z,11.08
2023-11-15T23:47:49.872Z,11.07
2023-11-15T23:49:54.501Z,11.04
2023-11-15T23:51:59.172Z,11.02
2023-11-15T23:54:04.186Z,11.02
2023-11-15T23:56:09.931Z,11.02
2023-11-15T23:58:14.790Z,11.02
